createdAt,value
2022-10-14T00:00:13.365Z,13.11
2022-10-14T00:02:41.467Z,12.97
2022-10-14T00:05:09.574Z,13.17
2022-10-14T00:07:36.897Z,13.26
2022-10-14T00:10:07.085Z,13.33
2022-10-14T00:12:34.037Z,13.04
2022-10-14T00:15:00.828Z,13.20
2022-10-14T00:17:27.781Z,12.96
2022-10-14T00:19:54.559Z,13.01
2022-10-14T00:22:21.232Z,13.00
2022-10-14T00:24:48.136Z,13.17
2022-10-14T00:27:14.821Z,13.03
2022-10-14T00:29:41.571Z,12.94
2022-10-14T00:32:08.566Z,12.96
2022-10-14T00:34:35.588Z,13.06
2022-10-14T00:37:04.149Z,13.00
2022-10-14T00:39:31.271Z,12.94
2022-10-14T00:41:58.020Z,12.96
2022-10-14T00:44:24.679Z,12.85
2022-10-14T00:46:51.792Z,13.16
2022-10-14T00:49:22.325Z,12.93
2022-10-14T00:51:51.708Z,13.08
2022-10-14T00:54:18.933Z,12.99
2022-10-14T00:56:45.777Z,13.08
2022-10-14T00:59:12.453Z,12.96
2022-10-14T01:01:39.524Z,13.01
2022-10-14T01:04:06.218Z,12.76
2022-10-14T01:06:35.753Z,12.68
2022-10-14T01:09:04.530Z,12.83
2022-10-14T01:11:42.602Z,12.71
2022-10-14T01:14:24.978Z,13.06
2022-10-14T01:17:07.434Z,12.72
2022-10-14T01:19:41.604Z,12.62
2022-10-14T01:22:12.345Z,12.84
2022-10-14T01:24:39.658Z,12.86
2022-10-14T01:27:09.433Z,12.85
2022-10-14T01:29:51.795Z,12.62
2022-10-14T01:32:37.699Z,12.59
2022-10-14T01:35:23.824Z,12.61
2022-10-14T01:37:56.028Z,12.80
2022-10-14T01:40:26.269Z,12.88
2022-10-14T01:42:55.568Z,12.51
2022-10-14T01:45:22.672Z,12.67
2022-10-14T01:47:49.648Z,12.86
2022-10-14T01:50:17.471Z,12.74
2022-10-14T01:52:46.152Z,12.78
2022-10-14T01:55:14.372Z,12.46
2022-10-14T01:57:41.457Z,12.77
2022-10-14T02:00:09.137Z,12.74
2022-10-14T02:02:40.471Z,12.33
2022-10-14T02:05:28.060Z,12.75
2022-10-14T02:07:57.599Z,12.55
2022-10-14T02:10:28.112Z,12.82
2022-10-14T02:13:14.447Z,12.49
2022-10-14T02:16:00.094Z,12.43
2022-10-14T02:18:41.576Z,12.69
2022-10-14T02:21:17.142Z,12.62
2022-10-14T02:24:08.281Z,12.62
2022-10-14T02:26:35.413Z,12.96
2022-10-14T02:29:02.400Z,12.84
2022-10-14T02:31:29.240Z,12.71
2022-10-14T02:33:56.934Z,12.54
2022-10-14T02:36:23.657Z,12.28
2022-10-14T02:38:50.485Z,12.51
2022-10-14T02:41:18.410Z,12.46
2022-10-14T02:43:45.503Z,12.68
2022-10-14T02:46:12.684Z,12.43
2022-10-14T02:48:39.868Z,12.47
2022-10-14T02:51:06.632Z,12.48
2022-10-14T02:53:33.314Z,12.25
2022-10-14T02:56:00.604Z,12.45
2022-10-14T02:58:27.322Z,12.69
2022-10-14T03:00:56.074Z,12.48
2022-10-14T03:03:25.691Z,12.36
2022-10-14T03:05:52.559Z,12.54
2022-10-14T03:08:20.188Z,12.28
2022-10-14T03:10:48.016Z,12.40
2022-10-14T03:13:14.838Z,12.46
2022-10-14T03:15:42.057Z,12.54
2022-10-14T03:18:09.333Z,12.65
2022-10-14T03:20:37.321Z,12.50
2022-10-14T03:23:04.739Z,12.73
2022-10-14T03:25:33.496Z,12.78
2022-10-14T03:28:01.819Z,12.67
2022-10-14T03:30:31.411Z,12.69
2022-10-14T03:32:58.624Z,12.77
2022-10-14T03:35:26.495Z,12.69
2022-10-14T03:37:54.892Z,12.67
2022-10-14T03:40:24.379Z,12.77
2022-10-14T03:42:51.180Z,12.84
2022-10-14T03:45:20.652Z,12.83
2022-10-14T03:47:48.171Z,12.78
2022-10-14T03:50:14.911Z,12.82
2022-10-14T03:52:46.629Z,13.03
2022-10-14T03:55:15.555Z,13.13
2022-10-14T03:57:42.736Z,13.07
2022-10-14T04:00:10.412Z,13.18
2022-10-14T04:02:40.253Z,13.13
2022-10-14T04:05:09.165Z,13.12
2022-10-14T04:07:36.199Z,13.10
2022-10-14T04:10:03.403Z,13.14
2022-10-14T04:12:31.899Z,13.07
2022-10-14T04:14:58.932Z,13.10
2022-10-14T04:17:25.831Z,13.16
2022-10-14T04:19:53.006Z,12.95
2022-10-14T04:22:20.961Z,13.11
2022-10-14T04:24:48.233Z,12.81
2022-10-14T04:27:15.180Z,13.15
2022-10-14T04:29:42.542Z,12.99
2022-10-14T04:32:10.318Z,13.11
2022-10-14T04:34:37.534Z,12.99
2022-10-14T04:37:04.610Z,12.90
2022-10-14T04:39:34.193Z,12.92
2022-10-14T04:42:02.234Z,12.89
2022-10-14T04:44:29.108Z,13.01
2022-10-14T04:46:56.027Z,12.83
2022-10-14T04:49:23.408Z,12.91
2022-10-14T04:51:50.903Z,12.97
2022-10-14T04:54:18.154Z,12.75
2022-10-14T04:56:45.494Z,12.74
2022-10-14T04:59:13.694Z,12.71
2022-10-14T05:01:42.317Z,12.83
2022-10-14T05:04:09.817Z,12.79
2022-10-14T05:06:38.168Z,12.86
2022-10-14T05:09:05.610Z,12.63
2022-10-14T05:11:33.740Z,12.71
2022-10-14T05:14:00.621Z,12.50
2022-10-14T05:16:28.237Z,12.61
2022-10-14T05:18:55.765Z,12.73
2022-10-14T05:21:22.746Z,12.74
2022-10-14T05:23:50.794Z,12.69
2022-10-14T05:26:18.180Z,12.69
2022-10-14T05:28:45.079Z,12.70
2022-10-14T05:31:11.935Z,12.66
2022-10-14T05:33:39.292Z,12.49
2022-10-14T05:36:06.403Z,12.65
2022-10-14T05:38:34.198Z,12.66
2022-10-14T05:41:03.070Z,12.67
2022-10-14T05:43:34.099Z,12.65
2022-10-14T05:46:01.447Z,12.90
2022-10-14T05:48:28.907Z,13.14
2022-10-14T05:51:01.366Z,12.94
2022-10-14T05:53:29.176Z,13.08
2022-10-14T05:56:03.955Z,12.97
2022-10-14T05:58:31.005Z,13.10
2022-10-14T06:01:01.543Z,13.26
2022-10-14T06:03:28.955Z,13.12
2022-10-14T06:05:56.332Z,13.16
2022-10-14T06:08:23.244Z,13.04
2022-10-14T06:10:50.359Z,13.14
2022-10-14T06:13:17.197Z,13.40
2022-10-14T06:15:44.723Z,13.31
2022-10-14T06:18:11.655Z,13.45
2022-10-14T06:20:38.383Z,13.34
2022-10-14T06:23:05.548Z,13.30
2022-10-14T06:25:33.067Z,13.65
2022-10-14T06:28:03.479Z,13.77
2022-10-14T06:30:30.137Z,13.85
2022-10-14T06:32:57.368Z,13.62
2022-10-14T06:35:24.197Z,13.69
2022-10-14T06:37:50.915Z,13.76
2022-10-14T06:40:18.020Z,14.03
2022-10-14T06:42:44.783Z,14.14
2022-10-14T06:45:11.687Z,14.31
2022-10-14T06:47:38.634Z,14.41
2022-10-14T06:50:05.487Z,14.65
2022-10-14T06:52:32.211Z,14.63
2022-10-14T06:54:59.242Z,14.75
2022-10-14T06:57:25.894Z,14.77
2022-10-14T06:59:52.563Z,14.92
2022-10-14T07:02:19.846Z,15.29
2022-10-14T07:04:46.855Z,15.55
2022-10-14T07:07:16.400Z,15.87
2022-10-14T07:09:43.367Z,16.16
2022-10-14T07:12:10.086Z,16.38
2022-10-14T07:14:36.775Z,16.65
2022-10-14T07:17:08.221Z,16.94
2022-10-14T07:19:35.068Z,17.16
2022-10-14T07:22:01.816Z,17.37
2022-10-14T07:24:29.045Z,17.53
2022-10-14T07:26:56.060Z,17.83
2022-10-14T07:29:22.895Z,18.11
2022-10-14T07:31:49.846Z,18.28
2022-10-14T07:34:16.583Z,18.39
2022-10-14T07:36:43.262Z,18.65
2022-10-14T07:39:10.245Z,18.90
2022-10-14T07:41:36.950Z,19.05
2022-10-14T07:44:06.164Z,19.28
2022-10-14T07:46:33.840Z,19.52
2022-10-14T07:49:17.040Z,19.73
2022-10-14T07:51:44.419Z,19.74
2022-10-14T07:54:18.551Z,19.71
2022-10-14T07:56:46.048Z,19.83
2022-10-14T07:59:13.191Z,19.74
2022-10-14T08:01:40.050Z,19.84
2022-10-14T08:04:07.267Z,19.39
2022-10-14T08:06:34.011Z,19.66
2022-10-14T08:09:00.706Z,19.84
2022-10-14T08:11:28.157Z,19.91
2022-10-14T08:13:55.199Z,20.14
2022-10-14T08:16:23.403Z,20.09
2022-10-14T08:18:51.017Z,20.28
2022-10-14T08:21:18.688Z,20.37
2022-10-14T08:23:45.532Z,20.59
2022-10-14T08:26:19.918Z,20.61
2022-10-14T08:28:47.096Z,20.87
2022-10-14T08:31:14.186Z,20.85
2022-10-14T08:33:41.064Z,20.79
2022-10-14T08:36:07.996Z,20.98
2022-10-14T08:38:35.232Z,21.30
2022-10-14T08:41:08.314Z,21.34
2022-10-14T08:43:54.045Z,21.40
2022-10-14T08:46:23.619Z,21.76
2022-10-14T08:48:51.104Z,21.40
2022-10-14T08:51:18.064Z,21.48
2022-10-14T08:53:46.841Z,21.51
2022-10-14T08:56:14.291Z,21.92
2022-10-14T08:58:46.031Z,21.56
2022-10-14T09:01:21.352Z,21.35
2022-10-14T09:03:48.589Z,21.68
2022-10-14T09:06:17.921Z,21.78
2022-10-14T09:08:46.231Z,21.51
2022-10-14T09:11:18.749Z,21.72
2022-10-14T09:13:46.744Z,21.45
2022-10-14T09:16:18.045Z,21.88
2022-10-14T09:18:54.780Z,22.12
2022-10-14T09:21:34.079Z,22.23
2022-10-14T09:24:16.761Z,21.98
2022-10-14T09:26:47.692Z,22.10
2022-10-14T09:29:25.805Z,22.14
2022-10-14T09:31:53.244Z,21.73
2022-10-14T09:34:21.208Z,21.70
2022-10-14T09:36:48.016Z,21.97
2022-10-14T09:39:14.778Z,22.02
2022-10-14T09:41:41.737Z,22.09
2022-10-14T09:44:25.493Z,22.27
2022-10-14T09:46:53.636Z,22.24
2022-10-14T09:49:23.481Z,22.48
2022-10-14T09:51:50.164Z,22.85
2022-10-14T09:54:24.993Z,22.60
2022-10-14T09:56:58.024Z,22.55
2022-10-14T09:59:25.009Z,22.81
2022-10-14T10:01:53.309Z,22.85
2022-10-14T10:04:29.402Z,22.90
2022-10-14T10:06:56.187Z,22.63
2022-10-14T10:09:23.194Z,23.00
2022-10-14T10:11:49.985Z,22.72
2022-10-14T10:14:17.334Z,23.05
2022-10-14T10:16:44.549Z,22.95
2022-10-14T10:19:37.599Z,22.88
2022-10-14T10:22:26.759Z,23.07
2022-10-14T10:25:03.487Z,23.05
2022-10-14T10:27:36.762Z,23.18
2022-10-14T10:30:12.606Z,22.95
2022-10-14T10:32:46.984Z,22.55
2022-10-14T10:35:14.183Z,22.25
2022-10-14T10:37:47.029Z,22.47
2022-10-14T10:40:16.587Z,22.64
2022-10-14T10:43:02.644Z,22.85
2022-10-14T10:45:36.332Z,23.18
2022-10-14T10:48:03.744Z,23.14
2022-10-14T10:50:39.783Z,23.14
2022-10-14T10:53:09.523Z,22.97
2022-10-14T10:55:55.096Z,22.37
2022-10-14T10:58:22.087Z,23.03
2022-10-14T11:00:54.835Z,23.11
2022-10-14T11:03:39.913Z,22.91
2022-10-14T11:06:06.856Z,23.23
2022-10-14T11:09:07.731Z,23.23
2022-10-14T11:11:59.669Z,22.92
2022-10-14T11:14:32.500Z,23.31
2022-10-14T11:17:10.946Z,23.43
2022-10-14T11:19:54.137Z,23.73
2022-10-14T11:22:28.788Z,23.78
2022-10-14T11:24:58.984Z,23.74
2022-10-14T11:27:44.151Z,23.74
2022-10-14T11:30:43.273Z,23.57
2022-10-14T11:33:22.349Z,23.10
2022-10-14T11:35:55.692Z,22.94
2022-10-14T11:38:25.877Z,23.37
2022-10-14T11:40:58.924Z,23.43
2022-10-14T11:43:35.333Z,23.31
2022-10-14T11:46:07.945Z,23.23
2022-10-14T11:48:34.899Z,23.24
2022-10-14T11:51:22.514Z,23.50
2022-10-14T11:53:55.764Z,23.73
2022-10-14T11:56:29.680Z,23.54
2022-10-14T11:58:58.530Z,23.58
2022-10-14T12:01:25.498Z,23.52
2022-10-14T12:04:01.094Z,23.59
2022-10-14T12:06:27.747Z,23.74
2022-10-14T12:09:02.905Z,23.59
2022-10-14T12:11:35.842Z,23.65
2022-10-14T12:14:04.589Z,23.57
2022-10-14T12:16:31.332Z,23.74
2022-10-14T12:18:58.281Z,23.87
2022-10-14T12:21:30.799Z,23.41
2022-10-14T12:23:59.384Z,22.96
2022-10-14T12:26:26.375Z,23.07
2022-10-14T12:28:54.102Z,23.08
2022-10-14T12:31:38.407Z,23.41
2022-10-14T12:34:11.403Z,23.32
2022-10-14T12:36:38.594Z,23.12
2022-10-14T12:39:17.942Z,22.84
2022-10-14T12:41:55.000Z,23.21
2022-10-14T12:44:28.115Z,23.43
2022-10-14T12:46:55.908Z,23.66
2022-10-14T12:49:29.872Z,23.19
2022-10-14T12:52:14.622Z,23.37
2022-10-14T12:54:48.426Z,23.24
2022-10-14T12:57:24.370Z,23.21
2022-10-14T12:59:52.212Z,23.51
2022-10-14T13:02:33.719Z,23.82
2022-10-14T13:05:24.267Z,23.60
2022-10-14T13:08:12.505Z,23.55
2022-10-14T13:10:43.461Z,23.26
2022-10-14T13:13:38.253Z,22.93
2022-10-14T13:16:05.786Z,23.22
2022-10-14T13:18:36.621Z,23.08
2022-10-14T13:21:04.491Z,23.07
2022-10-14T13:23:31.609Z,22.34
2022-10-14T13:26:06.444Z,22.59
2022-10-14T13:28:38.782Z,22.44
2022-10-14T13:31:08.160Z,22.71
2022-10-14T13:33:38.129Z,22.26
2022-10-14T13:36:05.858Z,22.74
2022-10-14T13:38:33.467Z,22.81
2022-10-14T13:41:00.589Z,22.82
2022-10-14T13:43:40.144Z,23.04
2022-10-14T13:46:15.241Z,22.71
2022-10-14T13:48:50.959Z,22.87
2022-10-14T13:51:36.529Z,22.60
2022-10-14T13:54:22.131Z,22.60
2022-10-14T13:57:42.641Z,22.56
2022-10-14T14:00:39.626Z,22.90
2022-10-14T14:02:44.145Z,23.04
2022-10-14T14:05:15.243Z,22.97
2022-10-14T14:10:29.632Z,22.94
2022-10-14T14:12:56.389Z,22.69
2022-10-14T14:15:24.021Z,22.74
2022-10-14T14:17:51.041Z,22.80
2022-10-14T14:20:23.833Z,22.86
2022-10-14T14:22:53.214Z,22.69
2022-10-14T14:25:34.121Z,22.67
2022-10-14T14:28:06.052Z,22.77
2022-10-14T14:30:34.099Z,22.89
2022-10-14T14:33:02.193Z,22.69
2022-10-14T14:35:29.784Z,22.77
2022-10-14T14:37:56.871Z,22.03
2022-10-14T14:40:24.735Z,22.47
2022-10-14T14:43:02.537Z,22.65
2022-10-14T14:45:37.675Z,22.60
2022-10-14T14:48:05.302Z,22.75
2022-10-14T14:50:33.216Z,22.68
2022-10-14T14:53:04.309Z,22.73
2022-10-14T14:55:34.685Z,22.75
2022-10-14T14:58:01.933Z,22.60
2022-10-14T15:00:30.641Z,22.61
2022-10-14T15:02:58.929Z,22.62
2022-10-14T15:05:25.828Z,22.51
2022-10-14T15:07:52.496Z,22.50
2022-10-14T15:10:20.893Z,22.47
2022-10-14T15:12:52.190Z,22.42
2022-10-14T15:15:34.319Z,22.36
2022-10-14T15:18:11.657Z,22.25
2022-10-14T15:20:38.386Z,22.25
2022-10-14T15:23:28.968Z,22.19
2022-10-14T15:25:58.603Z,21.96
2022-10-14T15:28:29.475Z,21.89
2022-10-14T15:31:03.083Z,21.74
2022-10-14T15:33:32.686Z,21.53
2022-10-14T15:36:00.261Z,21.61
2022-10-14T15:38:27.603Z,21.49
2022-10-14T15:40:57.474Z,21.55
2022-10-14T15:43:25.069Z,21.45
2022-10-14T15:46:13.902Z,21.34
2022-10-14T15:48:41.218Z,21.27
2022-10-14T15:51:10.026Z,20.97
2022-10-14T15:53:36.701Z,20.81
2022-10-14T15:56:04.640Z,20.85
2022-10-14T15:58:33.750Z,20.75
2022-10-14T16:01:03.749Z,20.55
2022-10-14T16:03:34.788Z,20.38
2022-10-14T16:06:07.600Z,20.35
2022-10-14T16:08:35.684Z,20.35
2022-10-14T16:11:06.351Z,20.02
2022-10-14T16:13:32.993Z,20.07
2022-10-14T16:16:00.575Z,20.06
2022-10-14T16:18:27.335Z,20.09
2022-10-14T16:21:02.049Z,19.85
2022-10-14T16:23:33.366Z,19.96
2022-10-14T16:26:00.875Z,19.89
2022-10-14T16:28:28.089Z,19.62
2022-10-14T16:30:55.646Z,19.60
2022-10-14T16:33:23.240Z,19.41
2022-10-14T16:35:51.497Z,19.44
2022-10-14T16:38:18.965Z,19.20
2022-10-14T16:40:45.699Z,19.25
2022-10-14T16:43:12.953Z,19.12
2022-10-14T16:45:40.423Z,19.15
2022-10-14T16:48:08.003Z,19.23
2022-10-14T16:50:34.826Z,19.07
2022-10-14T16:53:20.407Z,18.98
2022-10-14T16:55:47.115Z,19.16
2022-10-14T16:58:14.061Z,19.11
2022-10-14T17:00:40.764Z,18.77
2022-10-14T17:03:10.703Z,18.92
2022-10-14T17:05:38.125Z,19.00
2022-10-14T17:08:05.952Z,18.83
2022-10-14T17:10:34.662Z,18.79
2022-10-14T17:13:02.993Z,18.56
2022-10-14T17:15:30.242Z,18.55
2022-10-14T17:17:56.967Z,18.53
2022-10-14T17:20:24.241Z,18.39
2022-10-14T17:22:51.168Z,18.49
2022-10-14T17:25:17.969Z,18.39
2022-10-14T17:27:44.924Z,18.40
2022-10-14T17:30:11.990Z,18.27
2022-10-14T17:32:38.722Z,18.46
2022-10-14T17:35:06.980Z,18.31
2022-10-14T17:37:34.300Z,18.15
2022-10-14T17:40:00.982Z,18.08
2022-10-14T17:42:28.240Z,18.18
2022-10-14T17:44:55.490Z,18.08
2022-10-14T17:47:23.849Z,17.85
2022-10-14T17:49:54.029Z,17.81
2022-10-14T17:52:21.568Z,17.81
2022-10-14T17:54:48.818Z,17.75
2022-10-14T17:57:16.025Z,17.74
2022-10-14T17:59:42.763Z,17.64
2022-10-14T18:02:26.095Z,17.51
2022-10-14T18:04:53.061Z,17.63
2022-10-14T18:07:22.913Z,17.62
2022-10-14T18:09:51.209Z,17.39
2022-10-14T18:12:18.282Z,17.58
2022-10-14T18:14:44.947Z,17.58
2022-10-14T18:17:12.548Z,17.52
2022-10-14T18:19:41.054Z,17.39
2022-10-14T18:22:08.062Z,17.24
2022-10-14T18:24:38.661Z,17.27
2022-10-14T18:27:06.065Z,17.17
2022-10-14T18:29:32.824Z,17.15
2022-10-14T18:31:59.620Z,16.99
2022-10-14T18:34:27.676Z,17.02
2022-10-14T18:36:54.419Z,17.00
2022-10-14T18:39:21.415Z,16.82
2022-10-14T18:41:48.832Z,16.87
2022-10-14T18:44:15.848Z,16.86
2022-10-14T18:46:42.639Z,16.69
2022-10-14T18:49:11.331Z,16.70
2022-10-14T18:51:39.166Z,16.89
2022-10-14T18:54:08.422Z,16.59
2022-10-14T18:56:38.514Z,16.48
2022-10-14T18:59:07.323Z,16.61
2022-10-14T19:01:37.318Z,16.42
2022-10-14T19:04:06.072Z,16.50
2022-10-14T19:06:33.465Z,16.40
2022-10-14T19:09:02.036Z,16.45
2022-10-14T19:11:29.678Z,16.55
2022-10-14T19:13:57.549Z,16.58
2022-10-14T19:16:36.212Z,16.43
2022-10-14T19:19:08.517Z,16.36
2022-10-14T19:21:35.410Z,16.53
2022-10-14T19:24:03.177Z,16.49
2022-10-14T19:26:34.516Z,16.32
2022-10-14T19:29:02.915Z,16.22
2022-10-14T19:31:32.722Z,16.24
2022-10-14T19:34:00.801Z,16.07
2022-10-14T19:36:28.641Z,16.05
2022-10-14T19:39:00.342Z,16.08
2022-10-14T19:41:31.677Z,16.14
2022-10-14T19:43:59.223Z,16.07
2022-10-14T19:46:30.407Z,16.19
2022-10-14T19:49:02.586Z,16.11
2022-10-14T19:51:30.778Z,16.28
2022-10-14T19:53:57.961Z,16.18
2022-10-14T19:56:25.444Z,16.11
2022-10-14T19:58:53.833Z,16.10
2022-10-14T20:01:21.268Z,16.05
2022-10-14T20:03:48.655Z,16.27
2022-10-14T20:06:15.464Z,15.95
2022-10-14T20:08:42.994Z,15.81
2022-10-14T20:11:10.750Z,15.73
2022-10-14T20:13:37.883Z,15.76
2022-10-14T20:16:05.280Z,15.85
2022-10-14T20:18:32.351Z,15.71
2022-10-14T20:21:00.393Z,15.54
2022-10-14T20:23:27.269Z,15.60
2022-10-14T20:26:00.976Z,15.61
2022-10-14T20:28:27.826Z,15.44
2022-10-14T20:30:55.187Z,15.57
2022-10-14T20:33:22.218Z,15.57
2022-10-14T20:35:49.045Z,15.57
2022-10-14T20:38:15.986Z,15.66
2022-10-14T20:40:42.749Z,15.47
2022-10-14T20:43:09.472Z,15.59
2022-10-14T20:45:37.999Z,15.58
2022-10-14T20:48:04.808Z,15.34
2022-10-14T20:50:31.471Z,15.63
2022-10-14T20:52:59.650Z,15.45
2022-10-14T20:55:26.397Z,15.62
2022-10-14T20:57:53.098Z,15.39
2022-10-14T21:00:20.063Z,15.37
2022-10-14T21:02:46.875Z,15.42
2022-10-14T21:05:13.575Z,15.42
2022-10-14T21:07:40.488Z,14.96
2022-10-14T21:10:07.877Z,15.09
2022-10-14T21:12:34.625Z,15.19
2022-10-14T21:15:01.642Z,15.31
2022-10-14T21:17:28.396Z,15.20
2022-10-14T21:19:55.088Z,15.29
2022-10-14T21:22:25.005Z,14.83
2022-10-14T21:24:51.970Z,15.09
2022-10-14T21:27:18.721Z,15.02
2022-10-14T21:29:47.998Z,15.19
2022-10-14T21:32:14.732Z,15.17
2022-10-14T21:34:41.395Z,15.33
2022-10-14T21:37:08.350Z,15.09
2022-10-14T21:39:36.040Z,15.16
2022-10-14T21:42:04.074Z,15.22
2022-10-14T21:44:31.016Z,15.13
2022-10-14T21:46:57.774Z,15.18
2022-10-14T21:49:24.561Z,15.26
2022-10-14T21:51:51.493Z,15.26
2022-10-14T21:54:18.184Z,15.10
2022-10-14T21:56:44.904Z,15.02
2022-10-14T21:59:12.058Z,15.06
2022-10-14T22:01:39.125Z,15.08
2022-10-14T22:04:06.608Z,15.01
2022-10-14T22:06:33.988Z,15.10
2022-10-14T22:09:01.407Z,14.99
2022-10-14T22:11:33.424Z,14.91
2022-10-14T22:14:00.745Z,15.01
2022-10-14T22:16:29.204Z,15.00
2022-10-14T22:18:57.769Z,15.01
2022-10-14T22:21:25.150Z,14.89
2022-10-14T22:23:54.500Z,14.89
2022-10-14T22:26:23.289Z,15.03
2022-10-14T22:28:50.629Z,14.82
2022-10-14T22:31:18.633Z,14.79
2022-10-14T22:33:45.918Z,14.69
2022-10-14T22:36:12.724Z,14.79
2022-10-14T22:38:39.994Z,14.72
2022-10-14T22:41:07.414Z,14.47
2022-10-14T22:43:34.612Z,14.48
2022-10-14T22:46:01.407Z,14.43
2022-10-14T22:48:29.114Z,14.43
2022-10-14T22:51:03.100Z,14.38
2022-10-14T22:53:30.091Z,14.13
2022-10-14T22:55:57.022Z,14.09
2022-10-14T22:58:23.707Z,14.26
2022-10-14T23:00:51.048Z,13.99
2022-10-14T23:03:17.726Z,14.22
2022-10-14T23:05:44.401Z,14.35
2022-10-14T23:08:12.363Z,14.20
2022-10-14T23:10:39.235Z,14.30
2022-10-14T23:13:06.229Z,14.41
2022-10-14T23:15:33.582Z,14.31
2022-10-14T23:18:00.292Z,14.30
2022-10-14T23:20:27.063Z,14.47
2022-10-14T23:22:53.995Z,14.39
2022-10-14T23:25:20.800Z,14.36
2022-10-14T23:27:47.560Z,14.21
2022-10-14T23:30:14.972Z,13.96
2022-10-14T23:32:41.666Z,14.33
2022-10-14T23:35:08.639Z,14.08
2022-10-14T23:37:35.734Z,14.29
2022-10-14T23:40:02.578Z,14.17
2022-10-14T23:42:29.342Z,14.19
2022-10-14T23:44:56.351Z,14.12
2022-10-14T23:47:23.175Z,14.20
2022-10-14T23:49:50.137Z,14.10
2022-10-14T23:52:17.038Z,14.18
2022-10-14T23:54:43.734Z,14.04
2022-10-14T23:57:10.483Z,14.16
2022-10-14T23:59:37.397Z,14.18
